createdAt,value
2019-04-01T00:01:10.818Z,99.90
2019-04-01T00:03:40.217Z,99.90
2019-04-01T00:06:09.533Z,99.90
2019-04-01T00:08:38.844Z,99.90
2019-04-01T00:11:08.144Z,99.90
2019-04-01T00:13:37.464Z,99.90
2019-04-01T00:16:06.780Z,99.90
2019-04-01T00:18:36.081Z,99.90
2019-04-01T00:21:05.470Z,99.90
2019-04-01T00:23:34.770Z,99.90
2019-04-01T00:26:04.153Z,99.90
2019-04-01T00:28:33.930Z,99.90
2019-04-01T00:31:03.245Z,99.90
2019-04-01T00:33:32.543Z,99.90
2019-04-01T00:36:01.862Z,99.90
2019-04-01T00:38:31.150Z,99.90
2019-04-01T00:41:00.465Z,99.90
2019-04-01T00:43:40.404Z,99.90
2019-04-01T00:46:11.280Z,99.90
2019-04-01T00:48:41.509Z,99.90
2019-04-01T00:51:10.818Z,99.90
2019-04-01T00:53:40.147Z,99.90
2019-04-01T00:56:09.455Z,99.90
2019-04-01T00:58:38.748Z,99.90
2019-04-01T01:01:08.072Z,99.90
2019-04-01T01:03:37.371Z,99.90
2019-04-01T01:06:06.694Z,99.90
2019-04-01T01:08:36.985Z,99.90
2019-04-01T01:11:06.293Z,99.90
2019-04-01T01:13:35.593Z,99.90
2019-04-01T01:16:04.907Z,99.90
2019-04-01T01:18:34.208Z,99.90
2019-04-01T01:21:03.517Z,99.90
2019-04-01T01:23:32.817Z,99.90
2019-04-01T01:26:02.139Z,99.90
2019-04-01T01:28:31.432Z,99.90
2019-04-01T01:31:20.088Z,99.90
2019-04-01T01:33:49.393Z,99.90
2019-04-01T01:36:18.717Z,99.90
2019-04-01T01:38:48.008Z,99.90
2019-04-01T01:41:17.323Z,99.90
2019-04-01T01:43:46.629Z,99.90
2019-04-01T01:46:16.004Z,99.90
2019-04-01T01:48:45.301Z,99.90
2019-04-01T01:51:14.623Z,99.90
2019-04-01T01:53:44.896Z,99.90
2019-04-01T01:56:14.195Z,99.90
2019-04-01T01:58:43.506Z,99.90
2019-04-01T02:01:12.823Z,99.90
2019-04-01T02:03:42.214Z,99.90
2019-04-01T02:06:11.520Z,99.90
2019-04-01T02:08:40.829Z,99.90
2019-04-01T02:11:10.139Z,99.90
2019-04-01T02:13:39.525Z,99.90
2019-04-01T02:16:08.825Z,99.90
2019-04-01T02:18:38.132Z,99.90
2019-04-01T02:21:07.451Z,99.90
2019-04-01T02:23:36.769Z,99.90
2019-04-01T02:26:06.073Z,99.90
2019-04-01T02:28:35.371Z,99.90
2019-04-01T02:31:04.685Z,99.90
2019-04-01T02:33:34.055Z,99.90
2019-04-01T02:36:03.383Z,99.90
2019-04-01T02:38:32.679Z,99.90
2019-04-01T02:41:02.072Z,99.90
2019-04-01T02:43:31.361Z,99.90
2019-04-01T02:46:00.743Z,99.90
2019-04-01T02:48:31.016Z,99.90
2019-04-01T02:51:00.317Z,99.90
2019-04-01T02:53:29.628Z,99.90
2019-04-01T02:55:58.931Z,99.90
2019-04-01T02:58:28.248Z,99.90
2019-04-01T03:00:57.561Z,99.90
2019-04-01T03:03:26.851Z,99.90
2019-04-01T03:05:56.170Z,99.90
2019-04-01T03:08:25.458Z,99.90
2019-04-01T03:10:54.773Z,99.90
2019-04-01T03:13:24.064Z,99.90
2019-04-01T03:15:53.557Z,99.90
2019-04-01T03:18:22.853Z,99.90
2019-04-01T03:20:52.156Z,99.90
2019-04-01T03:23:21.448Z,99.90
2019-04-01T03:25:50.758Z,99.90
2019-04-01T03:28:20.067Z,99.90
2019-04-01T03:30:50.341Z,99.90
2019-04-01T03:33:19.661Z,99.90
2019-04-01T03:35:49.025Z,99.90
2019-04-01T03:38:18.339Z,99.90
2019-04-01T03:40:47.644Z,99.90
2019-04-01T03:43:16.970Z,99.90
2019-04-01T03:45:46.362Z,99.90
2019-04-01T03:48:15.659Z,99.90
2019-04-01T03:50:44.970Z,99.90
2019-04-01T03:53:15.250Z,99.90
2019-04-01T03:55:44.696Z,99.90
2019-04-01T03:58:13.997Z,99.90
2019-04-01T04:00:43.295Z,99.90
2019-04-01T04:03:12.611Z,99.90
2019-04-01T04:05:41.909Z,99.90
2019-04-01T04:08:11.235Z,99.90
2019-04-01T04:10:40.607Z,99.90
2019-04-01T04:13:09.920Z,99.90
2019-04-01T04:15:39.288Z,99.90
2019-04-01T04:18:08.601Z,99.90
2019-04-01T04:20:37.897Z,99.90
2019-04-01T04:23:07.207Z,99.90
2019-04-01T04:25:36.504Z,99.90
2019-04-01T04:28:05.813Z,99.90
2019-04-01T04:30:35.107Z,99.90
2019-04-01T04:33:04.462Z,99.90
2019-04-01T04:35:33.977Z,99.90
2019-04-01T04:38:04.356Z,99.90
2019-04-01T04:40:33.655Z,99.90
2019-04-01T04:43:03.039Z,99.90
2019-04-01T04:45:32.346Z,99.90
2019-04-01T04:48:01.661Z,99.90
2019-04-01T04:50:30.948Z,99.90
2019-04-01T04:53:00.259Z,99.90
2019-04-01T04:55:29.572Z,99.90
2019-04-01T04:57:58.875Z,99.90
2019-04-01T05:00:28.175Z,99.90
2019-04-01T05:02:57.489Z,99.90
2019-04-01T05:05:26.784Z,99.90
2019-04-01T05:07:56.099Z,99.90
2019-04-01T05:10:25.389Z,99.90
2019-04-01T05:12:54.710Z,99.90
2019-04-01T05:15:24.009Z,99.90
2019-04-01T05:17:53.313Z,99.90
2019-04-01T05:20:22.620Z,99.90
2019-04-01T05:22:53.078Z,99.90
2019-04-01T05:25:22.549Z,99.90
2019-04-01T05:27:53.867Z,99.90
2019-04-01T05:30:23.169Z,99.90
2019-04-01T05:32:55.023Z,99.90
2019-04-01T05:35:24.564Z,99.90
2019-04-01T05:37:55.164Z,99.90
2019-04-01T05:40:24.558Z,99.90
2019-04-01T05:42:53.868Z,99.90
2019-04-01T05:45:24.860Z,99.90
2019-04-01T05:47:54.989Z,99.90
2019-04-01T05:50:24.308Z,99.90
2019-04-01T05:52:53.850Z,99.90
2019-04-01T05:55:23.319Z,99.90
2019-04-01T05:57:52.626Z,99.90
2019-04-01T06:00:23.571Z,99.90
2019-04-01T06:02:53.488Z,99.90
2019-04-01T06:05:22.796Z,99.90
2019-04-01T06:07:52.707Z,99.90
2019-04-01T06:10:22.012Z,99.90
2019-04-01T06:12:51.397Z,99.90
2019-04-01T06:15:20.696Z,99.90
2019-04-01T06:17:50.004Z,99.90
2019-04-01T06:20:19.309Z,99.20
2019-04-01T06:22:49.279Z,98.70
2019-04-01T06:25:18.642Z,98.60
2019-04-01T06:27:48.119Z,98.30
2019-04-01T06:30:17.423Z,98.00
2019-04-01T06:32:47.000Z,96.80
2019-04-01T06:35:16.296Z,97.10
2019-04-01T06:37:45.683Z,97.30
2019-04-01T06:40:15.240Z,97.30
2019-04-01T06:42:44.808Z,97.30
2019-04-01T06:45:14.184Z,96.50
2019-04-01T06:47:44.590Z,95.80
2019-04-01T06:50:14.038Z,95.50
2019-04-01T06:52:43.343Z,94.90
2019-04-01T06:55:12.729Z,95.40
2019-04-01T06:57:42.033Z,94.60
2019-04-01T07:00:11.488Z,95.20
2019-04-01T07:02:40.852Z,93.90
2019-04-01T07:05:12.560Z,93.60
2019-04-01T07:07:41.300Z,93.80
2019-04-01T07:10:10.771Z,93.60
2019-04-01T07:12:40.068Z,93.50
2019-04-01T07:15:09.618Z,93.60
2019-04-01T07:17:39.072Z,93.20
2019-04-01T07:20:09.141Z,93.30
2019-04-01T07:22:38.661Z,92.60
2019-04-01T07:25:08.044Z,92.50
2019-04-01T07:27:37.407Z,91.20
2019-04-01T07:30:07.160Z,91.40
2019-04-01T07:32:36.451Z,92.30
2019-04-01T07:35:06.433Z,91.80
2019-04-01T07:37:36.698Z,91.20
2019-04-01T07:40:06.646Z,90.80
2019-04-01T07:42:35.954Z,86.20
2019-04-01T07:45:07.167Z,87.30
2019-04-01T07:47:36.844Z,87.80
2019-04-01T07:50:06.501Z,89.90
2019-04-01T07:52:35.802Z,88.70
2019-04-01T07:55:06.751Z,90.10
2019-04-01T07:57:36.119Z,87.50
2019-04-01T08:00:07.070Z,80.80
2019-04-01T08:02:37.345Z,75.40
2019-04-01T08:05:07.000Z,78.90
2019-04-01T08:07:36.313Z,78.60
2019-04-01T08:10:07.667Z,72.70
2019-04-01T08:12:36.994Z,69.80
2019-04-01T08:15:07.617Z,61.80
2019-04-01T08:17:36.925Z,73.00
2019-04-01T08:20:06.592Z,73.70
2019-04-01T08:22:36.356Z,67.50
2019-04-01T08:25:07.719Z,67.30
2019-04-01T08:27:37.089Z,71.90
2019-04-01T08:30:10.692Z,63.90
2019-04-01T08:32:39.986Z,67.20
2019-04-01T08:35:10.825Z,63.90
2019-04-01T08:37:40.786Z,60.60
2019-04-01T08:40:10.368Z,57.30
2019-04-01T08:42:39.671Z,64.70
2019-04-01T08:45:09.437Z,67.30
2019-04-01T08:47:38.734Z,64.70
2019-04-01T08:50:08.691Z,68.60
2019-04-01T08:52:38.152Z,63.90
2019-04-01T08:55:08.247Z,66.90
2019-04-01T08:57:37.547Z,68.30
2019-04-01T09:00:08.489Z,63.50
2019-04-01T09:02:37.789Z,58.40
2019-04-01T09:05:07.439Z,58.30
2019-04-01T09:07:36.751Z,53.00
2019-04-01T09:10:07.000Z,59.70
2019-04-01T09:12:36.471Z,57.80
2019-04-01T09:15:06.232Z,60.00
2019-04-01T09:17:35.543Z,59.70
2019-04-01T09:20:05.195Z,58.90
2019-04-01T09:22:34.504Z,57.90
2019-04-01T09:25:04.648Z,57.50
2019-04-01T09:27:33.955Z,55.30
2019-04-01T09:30:03.954Z,50.10
2019-04-01T09:32:33.335Z,47.80
2019-04-01T09:35:02.663Z,50.80
2019-04-01T09:37:31.990Z,51.10
2019-04-01T09:40:01.304Z,48.80
2019-04-01T09:42:31.594Z,47.30
2019-04-01T09:45:00.894Z,50.50
2019-04-01T09:47:30.337Z,48.80
2019-04-01T09:49:59.642Z,49.50
2019-04-01T09:52:28.958Z,48.40
2019-04-01T09:54:58.261Z,46.30
2019-04-01T09:57:27.567Z,45.90
2019-04-01T09:59:56.889Z,46.50
2019-04-01T10:02:32.055Z,48.30
2019-04-01T10:04:57.212Z,46.90
2019-04-01T10:07:26.531Z,47.90
2019-04-01T10:09:55.900Z,47.40
2019-04-01T10:12:25.220Z,46.70
2019-04-01T10:14:54.552Z,47.00
2019-04-01T10:17:23.864Z,48.50
2019-04-01T10:19:53.171Z,48.00
2019-04-01T10:22:22.487Z,48.90
2019-04-01T10:24:51.792Z,50.00
2019-04-01T10:27:21.116Z,49.50
2019-04-01T10:29:50.432Z,47.60
2019-04-01T10:32:19.824Z,46.40
2019-04-01T10:34:49.126Z,47.20
2019-04-01T10:37:18.450Z,49.50
2019-04-01T10:39:47.779Z,45.50
2019-04-01T10:42:17.096Z,46.90
2019-04-01T10:44:46.399Z,48.20
2019-04-01T10:47:16.789Z,44.90
2019-04-01T10:49:46.286Z,43.90
2019-04-01T10:52:15.868Z,49.40
2019-04-01T10:54:45.316Z,46.40
2019-04-01T10:57:14.627Z,44.20
2019-04-01T10:59:43.985Z,46.80
2019-04-01T11:02:13.400Z,47.50
2019-04-01T11:04:43.650Z,50.50
2019-04-01T11:07:13.022Z,48.50
2019-04-01T11:09:42.331Z,45.50
2019-04-01T11:12:11.649Z,45.30
2019-04-01T11:14:40.956Z,47.70
2019-04-01T11:17:10.271Z,45.80
2019-04-01T11:19:39.852Z,50.60
2019-04-01T11:22:09.372Z,49.30
2019-04-01T11:24:38.684Z,48.70
2019-04-01T11:27:08.002Z,51.70
2019-04-01T11:29:37.302Z,48.20
2019-04-01T11:32:07.532Z,48.10
2019-04-01T11:34:37.197Z,50.40
2019-04-01T11:37:06.548Z,47.80
2019-04-01T11:39:36.334Z,48.90
2019-04-01T11:42:06.011Z,47.50
2019-04-01T11:44:35.419Z,46.70
2019-04-01T11:47:04.943Z,47.50
2019-04-01T11:49:34.285Z,47.80
2019-04-01T11:52:03.611Z,46.30
2019-04-01T11:54:32.971Z,46.90
2019-04-01T11:57:02.468Z,44.30
2019-04-01T11:59:31.770Z,45.20
2019-04-01T12:02:01.090Z,47.10
2019-04-01T12:04:30.454Z,45.40
2019-04-01T12:07:02.019Z,43.40
2019-04-01T12:09:30.783Z,45.70
2019-04-01T12:12:00.201Z,45.30
2019-04-01T12:14:29.513Z,44.20
2019-04-01T12:16:58.831Z,46.90
2019-04-01T12:19:28.131Z,45.70
2019-04-01T12:21:57.471Z,45.00
2019-04-01T12:24:26.840Z,46.70
2019-04-01T12:26:56.148Z,42.70
2019-04-01T12:29:25.457Z,45.60
2019-04-01T12:31:54.764Z,44.30
2019-04-01T12:34:24.096Z,45.10
2019-04-01T12:36:53.397Z,46.90
2019-04-01T12:39:22.715Z,44.20
2019-04-01T12:41:52.008Z,46.10
2019-04-01T12:44:24.299Z,45.10
2019-04-01T12:46:53.683Z,43.90
2019-04-01T12:49:23.013Z,41.40
2019-04-01T12:51:52.326Z,40.20
2019-04-01T12:54:21.631Z,43.70
2019-04-01T12:56:50.943Z,43.70
2019-04-01T12:59:20.255Z,45.10
2019-04-01T13:01:52.646Z,45.50
2019-04-01T13:04:26.720Z,44.50
2019-04-01T13:06:56.020Z,45.10
2019-04-01T13:09:25.345Z,47.00
2019-04-01T13:11:54.647Z,43.00
2019-04-01T13:14:23.961Z,42.70
2019-04-01T13:16:53.271Z,44.80
2019-04-01T13:19:22.586Z,43.10
2019-04-01T13:21:51.895Z,44.40
2019-04-01T13:24:21.307Z,44.40
2019-04-01T13:26:51.082Z,43.60
2019-04-01T13:29:20.551Z,40.60
2019-04-01T13:31:51.094Z,42.30
2019-04-01T13:34:20.651Z,43.10
2019-04-01T13:36:50.056Z,42.20
2019-04-01T13:39:19.678Z,42.10
2019-04-01T13:41:48.986Z,43.30
2019-04-01T13:44:18.316Z,46.60
2019-04-01T13:46:48.661Z,46.60
2019-04-01T13:49:19.301Z,43.60
2019-04-01T13:51:48.666Z,43.20
2019-04-01T13:54:18.000Z,43.90
2019-04-01T13:56:47.300Z,43.10
2019-04-01T13:59:17.579Z,44.30
2019-04-01T14:01:47.015Z,41.40
2019-04-01T14:04:16.349Z,41.80
2019-04-01T14:06:45.662Z,43.30
2019-04-01T14:09:14.973Z,41.90
2019-04-01T14:11:44.280Z,42.20
2019-04-01T14:14:13.622Z,45.60
2019-04-01T14:16:42.933Z,43.50
2019-04-01T14:19:12.267Z,43.80
2019-04-01T14:21:43.559Z,44.00
2019-04-01T14:24:12.927Z,41.30
2019-04-01T14:26:42.226Z,39.90
2019-04-01T14:29:11.613Z,40.10
2019-04-01T14:31:41.034Z,42.50
2019-04-01T14:34:13.617Z,45.00
2019-04-01T14:36:41.404Z,45.70
2019-04-01T14:39:10.718Z,46.60
2019-04-01T14:41:40.276Z,44.10
2019-04-01T14:44:09.579Z,43.20
2019-04-01T14:46:38.879Z,44.90
2019-04-01T14:49:08.202Z,44.30
2019-04-01T14:51:37.508Z,44.30
2019-04-01T14:54:06.832Z,44.60
2019-04-01T14:56:36.135Z,43.10
2019-04-01T14:59:05.459Z,43.40
2019-04-01T15:01:35.655Z,43.30
2019-04-01T15:04:04.981Z,43.50
2019-04-01T15:06:34.301Z,44.90
2019-04-01T15:09:05.617Z,43.40
2019-04-01T15:11:36.539Z,42.80
2019-04-01T15:14:08.442Z,43.00
2019-04-01T15:16:37.946Z,43.60
2019-04-01T15:19:07.335Z,44.20
2019-04-01T15:21:36.642Z,44.30
2019-04-01T15:24:06.010Z,44.30
2019-04-01T15:26:35.373Z,44.00
2019-04-01T15:29:05.725Z,43.60
2019-04-01T15:31:35.037Z,44.00
2019-04-01T15:34:04.373Z,44.90
2019-04-01T15:36:33.683Z,46.40
2019-04-01T15:39:02.988Z,46.20
2019-04-01T15:41:33.684Z,45.10
2019-04-01T15:44:02.979Z,45.70
2019-04-01T15:46:32.286Z,44.30
2019-04-01T15:49:01.600Z,43.10
2019-04-01T15:51:30.932Z,44.40
2019-04-01T15:54:01.487Z,41.30
2019-04-01T15:56:31.065Z,42.60
2019-04-01T15:59:00.355Z,43.20
2019-04-01T16:01:30.272Z,44.50
2019-04-01T16:03:59.944Z,44.30
2019-04-01T16:06:29.405Z,44.10
2019-04-01T16:08:59.568Z,43.70
2019-04-01T16:11:28.884Z,44.60
2019-04-01T16:13:58.192Z,44.50
2019-04-01T16:16:28.593Z,43.70
2019-04-01T16:18:57.887Z,44.40
2019-04-01T16:21:27.209Z,44.90
2019-04-01T16:23:58.510Z,46.30
2019-04-01T16:26:27.828Z,47.40
2019-04-01T16:28:57.144Z,46.30
2019-04-01T16:31:26.630Z,46.00
2019-04-01T16:33:55.973Z,45.30
2019-04-01T16:36:27.675Z,45.50
2019-04-01T16:38:56.982Z,46.20
2019-04-01T16:41:26.308Z,46.60
2019-04-01T16:43:58.540Z,48.60
2019-04-01T16:46:27.901Z,47.30
2019-04-01T16:48:58.160Z,46.70
2019-04-01T16:51:27.478Z,47.50
2019-04-01T16:53:56.795Z,49.00
2019-04-01T16:56:28.116Z,51.50
2019-04-01T16:58:59.946Z,52.70
2019-04-01T17:01:29.440Z,52.40
2019-04-01T17:03:58.747Z,53.90
2019-04-01T17:06:28.072Z,54.20
2019-04-01T17:08:57.448Z,55.70
2019-04-01T17:11:26.902Z,55.90
2019-04-01T17:13:56.208Z,57.30
2019-04-01T17:16:27.070Z,57.80
2019-04-01T17:18:57.771Z,57.90
2019-04-01T17:21:27.272Z,57.70
2019-04-01T17:23:56.591Z,57.40
2019-04-01T17:26:25.904Z,57.60
2019-04-01T17:28:55.212Z,59.30
2019-04-01T17:31:25.475Z,59.60
2019-04-01T17:33:54.779Z,60.30
2019-04-01T17:36:24.113Z,60.60
2019-04-01T17:38:53.408Z,61.90
2019-04-01T17:41:22.728Z,62.60
2019-04-01T17:43:52.028Z,64.20
2019-04-01T17:46:21.348Z,64.00
2019-04-01T17:48:50.657Z,64.20
2019-04-01T17:51:19.968Z,66.10
2019-04-01T17:53:50.843Z,66.90
2019-04-01T17:56:21.339Z,66.10
2019-04-01T17:58:50.648Z,67.80
2019-04-01T18:01:19.968Z,69.80
2019-04-01T18:03:49.276Z,70.60
2019-04-01T18:06:19.707Z,71.20
2019-04-01T18:08:49.005Z,71.50
2019-04-01T18:11:18.330Z,72.60
2019-04-01T18:13:47.643Z,71.60
2019-04-01T18:16:16.960Z,73.20
2019-04-01T18:18:46.260Z,74.40
2019-04-01T18:21:38.300Z,72.50
2019-04-01T18:24:12.633Z,74.70
2019-04-01T18:27:02.437Z,76.00
2019-04-01T18:29:39.210Z,74.60
2019-04-01T18:32:10.214Z,76.00
2019-04-01T18:34:39.522Z,75.70
2019-04-01T18:37:08.823Z,75.40
2019-04-01T18:39:48.106Z,76.20
2019-04-01T18:42:09.125Z,78.30
2019-04-01T18:44:38.516Z,77.20
2019-04-01T18:47:07.819Z,78.00
2019-04-01T18:49:37.145Z,80.40
2019-04-01T18:52:06.493Z,78.50
2019-04-01T18:54:38.516Z,80.00
2019-04-01T18:57:07.854Z,79.00
2019-04-01T18:59:37.148Z,80.90
2019-04-01T19:02:06.457Z,80.80
2019-04-01T19:04:35.769Z,81.70
2019-04-01T19:07:05.072Z,83.00
2019-04-01T19:09:34.378Z,83.60
2019-04-01T19:12:04.706Z,85.30
2019-04-01T19:14:34.172Z,85.40
2019-04-01T19:17:03.479Z,86.70
2019-04-01T19:19:32.771Z,88.00
2019-04-01T19:22:03.164Z,88.00
2019-04-01T19:24:33.523Z,89.50
2019-04-01T19:27:02.845Z,90.00
2019-04-01T19:29:33.123Z,90.50
2019-04-01T19:32:02.444Z,90.60
2019-04-01T19:34:31.736Z,90.80
2019-04-01T19:37:02.016Z,90.90
2019-04-01T19:39:31.356Z,91.10
2019-04-01T19:42:00.739Z,91.50
2019-04-01T19:44:30.096Z,91.30
2019-04-01T19:46:59.437Z,91.50
2019-04-01T19:49:28.749Z,91.80
2019-04-01T19:51:58.039Z,92.10
2019-04-01T19:54:31.550Z,92.10
2019-04-01T19:56:59.108Z,92.30
2019-04-01T19:59:29.018Z,92.50
2019-04-01T20:01:58.657Z,92.70
2019-04-01T20:04:28.056Z,92.70
2019-04-01T20:06:57.414Z,93.10
2019-04-01T20:09:26.826Z,93.20
2019-04-01T20:11:58.369Z,93.30
2019-04-01T20:14:27.154Z,93.60
2019-04-01T20:16:56.462Z,93.60
2019-04-01T20:19:25.807Z,93.60
2019-04-01T20:21:56.286Z,93.60
2019-04-01T20:24:26.484Z,93.70
2019-04-01T20:26:55.888Z,93.70
2019-04-01T20:29:25.196Z,93.80
2019-04-01T20:31:54.493Z,93.60
2019-04-01T20:34:23.803Z,93.80
2019-04-01T20:36:53.186Z,93.70
2019-04-01T20:39:22.513Z,93.70
2019-04-01T20:41:51.802Z,93.80
2019-04-01T20:44:21.120Z,93.80
2019-04-01T20:46:50.413Z,94.00
2019-04-01T20:49:19.744Z,94.10
2019-04-01T20:51:49.093Z,94.20
2019-04-01T20:54:18.399Z,94.30
2019-04-01T20:56:49.105Z,94.50
2019-04-01T20:59:18.735Z,94.70
2019-04-01T21:01:48.108Z,94.80
2019-04-01T21:04:17.445Z,94.90
2019-04-01T21:06:46.799Z,94.90
2019-04-01T21:09:16.313Z,95.00
2019-04-01T21:11:45.981Z,95.10
2019-04-01T21:14:15.348Z,95.30
2019-04-01T21:16:44.655Z,95.40
2019-04-01T21:19:13.960Z,95.50
2019-04-01T21:21:43.256Z,95.50
2019-04-01T21:24:13.080Z,95.60
2019-04-01T21:26:42.392Z,95.70
2019-04-01T21:29:11.703Z,95.70
2019-04-01T21:31:41.005Z,95.70
2019-04-01T21:34:11.199Z,95.90
2019-04-01T21:36:41.529Z,95.90
2019-04-01T21:39:10.844Z,95.90
2019-04-01T21:41:40.143Z,95.90
2019-04-01T21:44:09.448Z,95.80
2019-04-01T21:46:38.758Z,96.00
2019-04-01T21:49:09.039Z,95.90
2019-04-01T21:51:38.453Z,95.90
2019-04-01T21:54:07.801Z,96.10
2019-04-01T21:56:37.100Z,96.00
2019-04-01T21:59:06.445Z,96.10
2019-04-01T22:01:37.055Z,96.20
2019-04-01T22:04:06.437Z,96.30
2019-04-01T22:06:35.745Z,96.30
2019-04-01T22:09:08.991Z,96.30
2019-04-01T22:11:38.306Z,96.40
2019-04-01T22:14:07.615Z,96.40
2019-04-01T22:16:36.921Z,96.30
2019-04-01T22:19:06.214Z,96.20
2019-04-01T22:21:35.517Z,96.30
2019-04-01T22:24:04.840Z,96.30
2019-04-01T22:26:34.136Z,96.20
2019-04-01T22:29:03.430Z,96.20
2019-04-01T22:31:32.742Z,96.10
2019-04-01T22:34:02.041Z,96.40
2019-04-01T22:36:31.532Z,96.00
2019-04-01T22:39:01.020Z,96.10
2019-04-01T22:41:31.968Z,96.10
2019-04-01T22:44:01.264Z,96.00
2019-04-01T22:46:30.569Z,96.00
2019-04-01T22:48:59.866Z,96.20
2019-04-01T22:51:30.141Z,96.20
2019-04-01T22:53:59.438Z,96.30
2019-04-01T22:56:28.745Z,96.50
2019-04-01T22:58:59.011Z,96.50
2019-04-01T23:01:28.325Z,96.70
2019-04-01T23:03:57.623Z,96.90
2019-04-01T23:06:27.026Z,96.70
2019-04-01T23:08:56.583Z,96.70
2019-04-01T23:11:25.891Z,96.80
2019-04-01T23:13:55.193Z,96.90
2019-04-01T23:16:24.503Z,96.90
2019-04-01T23:18:53.807Z,97.30
2019-04-01T23:21:23.111Z,97.10
2019-04-01T23:23:52.419Z,97.10
2019-04-01T23:26:21.739Z,97.40
2019-04-01T23:28:51.043Z,97.60
2019-04-01T23:31:20.401Z,97.80
2019-04-01T23:33:49.692Z,98.10
2019-04-01T23:36:19.011Z,97.90
2019-04-01T23:38:48.322Z,98.10
2019-04-01T23:41:17.620Z,98.00
2019-04-01T23:43:46.928Z,98.00
2019-04-01T23:46:16.246Z,97.90
2019-04-01T23:48:45.549Z,97.80
2019-04-01T23:51:14.847Z,97.80
2019-04-01T23:53:44.152Z,97.70
2019-04-01T23:56:13.468Z,97.60
2019-04-01T23:58:42.763Z,97.70
